createdAt,value
2022-08-26T00:00:13.540Z,21.40
2022-08-26T00:05:27.570Z,21.40
2022-08-26T00:10:44.921Z,21.40
2022-08-26T00:15:51.833Z,21.40
2022-08-26T00:20:57.198Z,21.40
2022-08-26T00:26:06.841Z,21.30
2022-08-26T00:31:18.613Z,21.30
2022-08-26T00:36:38.177Z,21.30
2022-08-26T00:41:45.145Z,21.30
2022-08-26T00:46:54.191Z,21.30
2022-08-26T00:52:02.935Z,21.30
2022-08-26T00:57:27.377Z,21.20
2022-08-26T01:02:35.911Z,21.20
2022-08-26T01:07:42.924Z,21.20
2022-08-26T01:13:00.203Z,21.20
2022-08-26T01:18:16.481Z,21.20
2022-08-26T01:23:36.515Z,21.20
2022-08-26T01:28:51.485Z,21.10
2022-08-26T01:34:09.919Z,21.10
2022-08-26T01:39:40.233Z,21.00
2022-08-26T01:44:57.176Z,21.00
2022-08-26T01:50:08.244Z,21.00
2022-08-26T01:55:39.694Z,20.90
2022-08-26T02:01:13.395Z,20.90
2022-08-26T02:06:34.731Z,20.90
2022-08-26T02:11:49.048Z,20.90
2022-08-26T02:17:16.748Z,20.90
2022-08-26T02:22:28.635Z,20.90
2022-08-26T02:27:53.431Z,20.90
2022-08-26T02:33:06.205Z,20.80
2022-08-26T02:38:43.146Z,20.80
2022-08-26T02:44:13.214Z,20.80
2022-08-26T02:49:20.763Z,20.70
2022-08-26T02:54:41.554Z,20.70
2022-08-26T03:00:23.976Z,20.70
2022-08-26T03:05:37.995Z,20.70
2022-08-26T03:22:33.654Z,20.50
2022-08-26T03:27:42.997Z,20.40
2022-08-26T03:33:12.395Z,20.40
2022-08-26T03:39:03.624Z,20.40
2022-08-26T03:44:15.383Z,20.30
2022-08-26T03:54:57.605Z,20.30
2022-08-26T04:00:18.498Z,20.30
2022-08-26T04:05:36.489Z,20.20
2022-08-26T04:10:47.112Z,20.10
2022-08-26T04:16:05.734Z,20.10
2022-08-26T04:21:36.691Z,20.00
2022-08-26T04:27:17.616Z,19.90
2022-08-26T04:32:29.983Z,19.90
2022-08-26T04:37:37.091Z,19.90
2022-08-26T04:42:50.899Z,19.90
2022-08-26T04:54:07.059Z,19.90
2022-08-26T04:59:39.564Z,19.90
2022-08-26T05:28:48.137Z,20.00
2022-08-26T05:34:10.979Z,20.10
2022-08-26T05:45:36.647Z,20.40
2022-08-26T05:56:48.014Z,20.60
2022-08-26T06:01:58.745Z,20.80
2022-08-26T06:07:15.489Z,21.00
2022-08-26T06:12:40.060Z,21.20
2022-08-26T06:17:46.879Z,21.50
2022-08-26T06:23:17.838Z,21.70
2022-08-26T06:28:24.769Z,22.00
2022-08-26T06:33:31.655Z,22.20
2022-08-26T06:38:37.598Z,22.30
2022-08-26T06:43:44.645Z,22.50
2022-08-26T06:48:50.339Z,22.80
2022-08-26T06:53:59.409Z,23.10
2022-08-26T06:59:07.609Z,23.40
2022-08-26T07:04:22.126Z,23.80
2022-08-26T07:09:27.926Z,24.20
2022-08-26T07:14:34.734Z,24.50
2022-08-26T07:19:41.430Z,24.70
2022-08-26T07:24:46.755Z,24.80
2022-08-26T07:29:57.038Z,24.90
2022-08-26T07:35:06.350Z,25.10
2022-08-26T07:40:13.431Z,25.30
2022-08-26T07:45:20.590Z,25.70
2022-08-26T07:50:49.572Z,25.90
2022-08-26T07:55:39.114Z,25.90
2022-08-26T08:01:06.817Z,26.00
2022-08-26T08:06:15.446Z,26.50
2022-08-26T08:11:22.576Z,26.90
2022-08-26T08:16:32.207Z,27.50
2022-08-26T08:21:36.899Z,27.80
2022-08-26T08:26:42.599Z,28.30
2022-08-26T08:31:58.502Z,28.50
2022-08-26T08:36:57.487Z,29.10
2022-08-26T08:42:34.797Z,29.40
2022-08-26T08:47:47.594Z,29.80
2022-08-26T08:53:09.041Z,30.00
2022-08-26T08:58:19.133Z,30.40
2022-08-26T09:03:45.602Z,30.50
2022-08-26T09:08:56.763Z,30.70
2022-08-26T09:14:03.766Z,31.00
2022-08-26T09:19:23.281Z,31.10
2022-08-26T09:24:31.144Z,30.80
2022-08-26T09:29:50.462Z,30.90
2022-08-26T09:35:23.753Z,31.40
2022-08-26T09:40:37.283Z,31.40
2022-08-26T09:45:54.975Z,31.20
2022-08-26T09:51:01.367Z,31.40
2022-08-26T09:56:19.298Z,31.40
2022-08-26T10:01:32.898Z,31.80
2022-08-26T10:06:41.525Z,31.70
2022-08-26T10:11:56.147Z,31.30
2022-08-26T10:17:31.718Z,31.70
2022-08-26T10:22:39.923Z,31.60
2022-08-26T10:27:55.201Z,31.80
2022-08-26T10:33:03.594Z,32.20
2022-08-26T10:38:14.641Z,31.90
2022-08-26T10:43:34.453Z,32.10
2022-08-26T10:48:45.719Z,32.70
2022-08-26T10:54:14.750Z,32.80
2022-08-26T10:59:23.044Z,32.30
2022-08-26T11:04:50.778Z,33.00
2022-08-26T11:09:56.980Z,33.40
2022-08-26T11:15:24.644Z,33.30
2022-08-26T11:20:47.335Z,33.80
2022-08-26T11:26:01.932Z,33.90
2022-08-26T11:31:10.676Z,32.90
2022-08-26T11:36:50.331Z,32.50
2022-08-26T11:42:00.266Z,31.90
2022-08-26T11:47:07.853Z,31.60
2022-08-26T11:52:22.989Z,31.50
2022-08-26T11:57:30.257Z,31.60
2022-08-26T12:02:35.612Z,32.10
2022-08-26T12:07:42.659Z,32.50
2022-08-26T12:12:51.140Z,32.30
2022-08-26T12:17:56.497Z,32.70
2022-08-26T12:23:02.817Z,32.90
2022-08-26T12:28:08.585Z,32.00
2022-08-26T12:33:22.957Z,31.90
2022-08-26T12:38:25.116Z,32.20
2022-08-26T12:43:42.617Z,32.30
2022-08-26T12:48:50.628Z,32.50
2022-08-26T12:53:56.379Z,32.50
2022-08-26T12:59:13.420Z,32.50
2022-08-26T13:04:36.279Z,32.20
2022-08-26T13:09:42.090Z,32.30
2022-08-26T13:14:48.559Z,32.10
2022-08-26T13:19:53.990Z,32.10
2022-08-26T13:24:59.420Z,32.50
2022-08-26T13:30:05.326Z,32.40
2022-08-26T13:35:12.691Z,32.30
2022-08-26T13:40:18.165Z,32.40
2022-08-26T13:45:23.582Z,32.20
2022-08-26T13:50:28.895Z,32.00
2022-08-26T13:55:49.513Z,31.80
2022-08-26T14:00:57.022Z,31.90
2022-08-26T14:06:02.396Z,31.60
2022-08-26T14:11:08.640Z,31.40
2022-08-26T14:16:25.808Z,31.50
2022-08-26T14:21:33.640Z,31.50
2022-08-26T14:26:39.159Z,31.40
2022-08-26T14:31:50.273Z,31.30
2022-08-26T14:36:55.648Z,31.20
2022-08-26T14:42:01.660Z,31.20
2022-08-26T14:47:07.537Z,31.20
2022-08-26T14:52:14.080Z,31.10
2022-08-26T14:57:19.489Z,31.10
2022-08-26T15:02:40.178Z,31.20
2022-08-26T15:07:32.207Z,31.00
2022-08-26T15:12:39.326Z,30.80
2022-08-26T15:17:44.845Z,30.80
2022-08-26T15:22:50.867Z,30.70
2022-08-26T15:27:59.502Z,30.70
2022-08-26T15:33:14.874Z,30.60
2022-08-26T15:38:14.613Z,30.50
2022-08-26T15:43:28.649Z,30.40
2022-08-26T15:48:28.947Z,30.40
2022-08-26T15:53:36.757Z,30.40
2022-08-26T15:58:42.785Z,30.20
2022-08-26T16:03:52.249Z,30.20
2022-08-26T16:08:59.164Z,30.10
2022-08-26T16:14:07.831Z,30.00
2022-08-26T16:19:13.502Z,29.80
2022-08-26T16:24:25.912Z,29.70
2022-08-26T16:29:29.713Z,29.60
2022-08-26T16:34:36.298Z,29.50
2022-08-26T16:39:45.173Z,29.30
2022-08-26T16:44:48.770Z,29.10
2022-08-26T16:49:54.109Z,29.00
2022-08-26T16:55:00.049Z,28.80
2022-08-26T17:00:09.907Z,28.60
2022-08-26T17:05:15.769Z,28.50
2022-08-26T17:10:21.822Z,28.20
2022-08-26T17:15:27.280Z,28.10
2022-08-26T17:20:32.712Z,28.00
2022-08-26T17:25:38.819Z,27.80
2022-08-26T17:30:44.763Z,27.50
2022-08-26T17:35:50.160Z,27.30
2022-08-26T17:40:56.490Z,27.00
2022-08-26T17:46:06.607Z,26.80
2022-08-26T17:51:17.292Z,26.60
2022-08-26T17:56:25.703Z,26.40
2022-08-26T18:01:31.120Z,26.10
2022-08-26T18:06:38.557Z,25.80
2022-08-26T18:11:43.948Z,25.40
2022-08-26T18:16:49.826Z,25.20
2022-08-26T18:22:01.114Z,24.90
2022-08-26T18:27:06.617Z,24.80
2022-08-26T18:32:11.888Z,24.60
2022-08-26T18:37:17.327Z,24.40
2022-08-26T18:42:23.974Z,24.20
2022-08-26T18:47:30.435Z,24.00
2022-08-26T18:52:35.910Z,23.80
2022-08-26T18:57:41.879Z,23.60
2022-08-26T19:03:01.878Z,23.40
2022-08-26T19:08:08.585Z,23.30
2022-08-26T19:13:14.132Z,23.20
2022-08-26T19:18:21.480Z,23.10
2022-08-26T19:23:31.826Z,22.90
2022-08-26T19:28:34.676Z,22.70
2022-08-26T19:33:45.599Z,22.60
2022-08-26T19:38:52.061Z,22.50
2022-08-26T19:43:59.012Z,22.40
2022-08-26T19:49:04.323Z,22.30
2022-08-26T19:54:10.573Z,22.30
2022-08-26T19:59:15.896Z,22.20
2022-08-26T20:04:21.225Z,22.10
2022-08-26T20:09:26.596Z,22.00
2022-08-26T20:14:31.972Z,21.90
2022-08-26T20:19:55.332Z,21.80
2022-08-26T20:25:00.690Z,21.60
2022-08-26T20:30:08.152Z,21.50
2022-08-26T20:35:15.412Z,21.40
2022-08-26T20:40:21.580Z,21.20
2022-08-26T20:45:27.126Z,21.10
2022-08-26T20:50:33.434Z,21.00
2022-08-26T20:55:39.307Z,21.00
2022-08-26T21:00:44.763Z,20.90
2022-08-26T21:05:50.664Z,20.80
2022-08-26T21:10:56.251Z,20.70
2022-08-26T21:16:01.632Z,20.70
2022-08-26T21:21:09.002Z,20.60
2022-08-26T21:26:16.005Z,20.60
2022-08-26T21:31:24.296Z,20.50
2022-08-26T21:36:29.664Z,20.40
2022-08-26T21:41:35.127Z,20.40
2022-08-26T21:46:40.770Z,20.30
2022-08-26T21:51:48.722Z,20.30
2022-08-26T21:56:54.151Z,20.20
2022-08-26T22:02:00.534Z,20.20
2022-08-26T22:07:06.159Z,20.10
2022-08-26T22:12:12.852Z,20.00
2022-08-26T22:17:18.258Z,19.90
2022-08-26T22:22:23.596Z,19.90
2022-08-26T22:27:29.035Z,19.80
2022-08-26T22:32:35.520Z,19.80
2022-08-26T22:37:41.576Z,19.70
2022-08-26T22:42:55.574Z,19.70
2022-08-26T22:47:54.010Z,19.70
2022-08-26T22:52:59.777Z,19.70
2022-08-26T22:58:06.989Z,19.70
2022-08-26T23:03:12.768Z,19.70
2022-08-26T23:08:18.272Z,19.70
2022-08-26T23:13:32.498Z,19.70
2022-08-26T23:18:38.717Z,19.60
2022-08-26T23:23:46.374Z,19.60
2022-08-26T23:28:51.740Z,19.50
2022-08-26T23:34:14.899Z,19.50
2022-08-26T23:39:20.357Z,19.40
2022-08-26T23:44:26.874Z,19.30
2022-08-26T23:49:32.972Z,19.20
2022-08-26T23:54:40.026Z,19.20
2022-08-26T23:59:48.799Z,19.20
